Latest Weather Observations for Point Perpendicular

IDN60801

Issued at 10:23 pm EST Friday 20 July 2018 (issued every 10 minutes, with the page automatically refreshed every 10 minutes)

About weather observations | Map of weather stations | Latest weather observations for NSW | Other Formats
Station Details ID: 068151 Name: POINT PERPENDICULAR AWS Lat: -35.09 Lon: 150.80 Height: 85.0 m
Data from the previous 72 hours. | See also: Recent months at Point Perpendicular
Date/Time
EST
Temp
°C
App
Temp
°C
Dew
Point
°C
Rel
Hum
%
Delta-T
°C
Wind Press
QNH
hPa
Press
MSL
hPa
Rain since
9am
mm
Dir  Spd
km/h
Gust
km/h
Spd
kts
Gust
kts
20/10:00pm 10.9 7.7 0.9 50 4.2 W 7 20 4 11 1013.3 1013.3 0.0
20/09:30pm 10.9 7.4 1.2 51 4.1 W 9 20 5 11 1013.2 1013.2 0.0
20/09:00pm 11.0 7.7 0.1 47 4.5 W 7 26 4 14 1013.4 1013.4 0.0
20/08:30pm 10.9 6.4 -0.2 46 4.5 W 13 28 7 15 1013.4 1013.4 0.0
20/08:00pm 11.0 7.9 1.5 52 4.0 W 7 19 4 10 1013.0 1013.0 0.0
20/07:30pm 11.0 7.2 1.8 53 3.9 W 11 24 6 13 1012.3 1012.3 0.0
20/07:00pm 11.2 7.1 2.2 54 3.9 W 13 24 7 13 1011.4 1011.4 0.0
20/06:30pm 11.3 7.1 1.5 51 4.1 W 13 28 7 15 1010.7 1010.7 0.0
20/06:00pm 11.7 7.2 -0.1 44 4.8 W 13 24 7 13 1010.7 1010.7 0.0
20/05:30pm 12.2 7.3 -0.3 42 5.1 W 15 30 8 16 1010.0 1010.0 0.0
20/05:00pm 12.7 8.4 1.1 45 4.9 W 13 32 7 17 1008.8 1008.8 0.0
20/04:30pm 12.8 8.0 0.2 42 5.3 W 15 37 8 20 1008.3 1008.3 0.0
20/04:00pm 13.3 9.1 1.6 45 5.1 W 13 24 7 13 1007.2 1007.2 0.0
20/03:30pm 13.8 9.2 1.5 43 5.3 W 15 30 8 16 1006.6 1006.6 0.0
20/03:00pm 14.0 9.7 1.3 42 5.5 W 13 26 7 14 1006.5 1006.5 0.0
20/02:30pm 14.1 9.6 2.4 45 5.2 W 15 32 8 17 1006.1 1006.1 0.0
20/02:00pm 14.4 9.9 2.3 44 5.4 W 15 33 8 18 1005.5 1005.5 0.0
20/01:30pm 13.5 9.4 2.4 47 4.9 W 13 26 7 14 1004.9 1004.9 0.0
20/01:00pm 13.1 8.8 3.2 51 4.4 W 15 32 8 17 1004.4 1004.4 0.0
20/12:30pm 13.9 9.3 3.7 50 4.6 W 17 28 9 15 1004.0 1004.0 0.0
20/12:00pm 14.8 8.9 3.9 48 5.0 WNW 24 39 13 21 1003.8 1003.8 0.0
20/11:39am 16.1 9.2 4.8 47 5.4 NW 30 52 16 28 1003.7 1003.7 0.0
20/11:30am 16.2 9.1 3.6 43 5.8 NW 30 44 16 24 1003.5 1003.5 0.0
20/11:14am 16.5 9.5 2.2 38 6.4 WNW 28 50 15 27 1003.5 1003.5 0.0
20/11:00am 16.3 11.3 4.4 45 5.6 WNW 20 35 11 19 1003.9 1003.9 0.0
20/10:30am 16.5 11.9 1.8 37 6.6 NW 15 22 8 12 1003.7 1003.7 0.0
20/10:00am 16.0 12.1 1.0 36 6.6 NW 11 17 6 9 1003.9 1003.9 0.0
20/09:30am 17.1 12.3 0.3 32 7.3 NNW 15 22 8 12 1004.6 1004.6 0.0
20/09:00am 15.6 10.8 0.2 35 6.6 NNW 15 37 8 20 1004.5 1004.5 0.0
20/08:30am 16.3 12.3 0.4 34 6.9 NNW 11 19 6 10 1003.7 1003.7 0.0
20/08:00am 15.4 11.4 0.4 36 6.5 NNW 11 15 6 8 1003.7 1003.7 0.0
20/07:30am 14.8 10.7 -0.5 35 6.4 WNW 11 17 6 9 1004.1 1004.1 0.0
20/07:00am 14.8 12.4 2.0 42 5.7 W 4 6 2 3 1004.5 1004.5 0.0
20/06:30am 15.2 12.4 -0.1 35 6.5 W 4 6 2 3 1004.4 1004.4 0.0
20/06:00am 14.7 12.3 -0.6 35 6.4 W 2 6 1 3 1004.3 1004.3 0.0
20/05:30am 13.3 10.3 0.7 42 5.3 WSW 6 7 3 4 1004.7 1004.7 0.0
20/05:00am 12.9 10.4 4.8 58 3.8 NW 7 13 4 7 1004.6 1004.6 0.0
20/04:30am 13.5 9.6 1.2 43 5.3 NNW 11 15 6 8 1004.6 1004.6 0.0
20/04:00am 13.0 9.6 3.9 54 4.1 NW 11 17 6 9 1005.1 1005.1 0.0
20/03:30am 13.3 9.5 5.9 61 3.5 N 15 17 8 9 1005.7 1005.7 0.0
20/03:00am 13.6 9.7 5.5 58 3.8 NNE 15 19 8 10 1005.6 1005.6 0.0
20/02:30am 13.4 9.1 5.3 58 3.8 NNE 17 19 9 10 1006.2 1006.2 0.0
20/02:00am 14.1 10.0 6.0 58 3.9 NNE 17 22 9 12 1006.7 1006.7 0.0
20/01:30am 14.0 9.6 4.9 54 4.3 NNE 17 20 9 11 1007.2 1007.2 0.0
20/01:00am 14.3 9.5 4.9 53 4.4 N 19 22 10 12 1007.6 1007.6 0.0
20/12:30am 13.9 9.8 6.3 60 3.7 N 17 20 9 11 1008.0 1008.0 0.0
20/12:00am 13.8 9.9 7.1 64 3.3 N 17 20 9 11 1008.7 1008.7 0.0
 
Date/Time
EST
Temp
°C
App
Temp
°C
Dew
Point
°C
Rel
Hum
%
Delta-T
°C
Wind Press
QNH
hPa
Press
MSL
hPa
Rain since
9am
mm
Dir  Spd
km/h
Gust
km/h
Spd
kts
Gust
kts
19/11:30pm 13.5 9.6 7.3 66 3.0 N 17 20 9 11 1009.2 1009.2 0.0
19/11:00pm 12.5 8.3 5.9 64 3.1 N 17 19 9 10 1009.6 1009.6 0.0
19/10:30pm 12.6 8.6 3.0 52 4.3 N 13 13 7 7 1009.7 1009.7 0.0
19/10:00pm 13.0 9.2 1.7 46 4.9 N 11 13 6 7 1010.0 1010.0 0.0
19/09:30pm 12.5 9.2 4.7 59 3.6 NNW 11 11 6 6 1010.5 1010.5 0.0
19/09:00pm 12.9 10.1 5.1 59 3.6 N 9 11 5 6 1010.9 1010.9 0.0
19/08:30pm 13.5 10.9 6.1 61 3.5 N 9 11 5 6 1011.6 1011.6 0.0
19/08:00pm 13.0 10.1 6.6 65 3.1 N 11 13 6 7 1011.6 1011.6 0.0
19/07:30pm 14.1 11.0 5.7 57 4.0 N 11 13 6 7 1011.7 1011.7 0.0
19/07:00pm 14.3 11.0 6.6 60 3.7 N 13 15 7 8 1011.7 1011.7 0.0
19/06:30pm 13.9 10.8 7.4 65 3.2 N 13 17 7 9 1011.4 1011.4 0.0
19/06:00pm 14.7 11.2 7.3 61 3.7 N 15 20 8 11 1011.2 1011.2 0.0
19/05:30pm 15.5 11.0 -0.3 34 6.7 N 13 17 7 9 1011.0 1011.0 0.0
19/05:00pm 17.1 13.3 -0.6 30 7.6 NNW 9 13 5 7 1011.2 1011.2 0.0
19/04:30pm 18.2 12.8 -1.1 27 8.2 NW 17 26 9 14 1010.7 1010.7 0.0
19/04:00pm 18.6 13.0 0.2 29 8.1 NW 19 26 10 14 1010.8 1010.8 0.0
19/03:30pm 18.0 13.4 -1.3 27 8.2 NW 13 20 7 11 1011.0 1011.0 0.0
19/03:00pm 17.5 13.6 1.1 33 7.3 NNW 11 22 6 12 1011.2 1011.2 0.0
19/02:30pm 15.8 12.1 4.2 46 5.4 N 13 22 7 12 1011.3 1011.3 0.0
19/02:00pm 15.1 11.1 3.0 44 5.5 N 13 19 7 10 1011.7 1011.7 0.0
19/01:30pm 14.3 11.0 2.5 45 5.2 N 9 15 5 8 1012.2 1012.2 0.0
19/01:00pm 13.9 9.7 1.9 44 5.3 N 13 20 7 11 1012.7 1012.7 0.0
19/12:30pm 13.8 9.1 1.1 42 5.5 N 15 26 8 14 1013.4 1013.4 0.0
19/12:00pm 13.2 9.8 1.8 46 4.9 NW 9 13 5 7 1014.2 1014.2 0.0
19/11:30am 12.6 10.6 2.2 49 4.5 N 2 6 1 3 1015.0 1015.0 0.0
19/11:00am 12.5 9.0 1.5 47 4.7 NNW 9 15 5 8 1015.5 1015.5 0.0
19/10:30am 11.8 8.2 0.9 47 4.6 N 9 13 5 7 1015.5 1015.5 0.0
19/10:00am 12.1 8.7 1.7 49 4.4 N 9 11 5 6 1015.6 1015.6 0.0
19/09:30am 12.4 8.4 0.8 45 4.9 NW 11 15 6 8 1015.5 1015.5 0.0
19/09:00am 12.1 6.4 0.8 46 4.7 NW 20 26 11 14 1015.4 1015.4 0.0
19/08:30am 11.1 6.9 1.4 51 4.1 N 13 19 7 10 1015.5 1015.5 0.0
19/08:00am 11.0 5.8 0.4 48 4.4 NNW 17 22 9 12 1015.2 1015.2 0.0
19/07:30am 10.4 6.1 1.2 53 3.8 NNW 13 19 7 10 1014.9 1014.9 0.0
19/07:00am 9.9 4.9 1.3 55 3.6 NNW 17 22 9 12 1015.4 1015.4 0.0
19/06:30am 9.9 5.6 1.3 55 3.6 NNW 13 15 7 8 1015.2 1015.2 0.0
19/06:00am 9.7 4.3 1.4 56 3.4 NNW 19 28 10 15 1015.1 1015.1 0.0
19/05:30am 9.6 4.6 1.3 56 3.4 NNW 17 22 9 12 1014.9 1014.9 0.0
19/05:00am 9.4 3.8 1.1 56 3.4 NNW 20 24 11 13 1014.8 1014.8 0.0
19/04:30am 9.8 4.4 1.2 55 3.6 NNW 19 28 10 15 1014.9 1014.9 0.0
19/04:00am 9.7 4.2 0.9 54 3.6 NW 19 26 10 14 1015.4 1015.4 0.0
19/03:30am 10.0 3.6 0.9 53 3.8 NW 24 32 13 17 1015.3 1015.3 0.0
19/03:00am 9.7 3.7 1.1 55 3.5 NW 22 30 12 16 1015.7 1015.7 0.0
19/02:30am 10.0 5.3 1.1 54 3.7 NNW 15 20 8 11 1016.2 1016.2 0.0
19/02:00am 10.3 5.3 1.2 53 3.8 NW 17 24 9 13 1016.6 1016.6 0.0
19/01:30am 10.6 4.7 1.4 53 3.9 NW 22 30 12 16 1016.5 1016.5 0.0
19/01:00am 10.9 5.4 1.7 53 3.9 NW 20 30 11 16 1016.5 1016.5 0.0
19/12:30am 11.1 5.8 1.6 52 4.0 NW 19 28 10 15 1016.4 1016.4 0.0
19/12:00am 10.9 5.7 2.2 55 3.7 NW 19 30 10 16 1016.8 1016.8 0.0
 
Date/Time
EST
Temp
°C
App
Temp
°C
Dew
Point
°C
Rel
Hum
%
Delta-T
°C
Wind Press
QNH
hPa
Press
MSL
hPa
Rain since
9am
mm
Dir  Spd
km/h
Gust
km/h
Spd
kts
Gust
kts
18/11:30pm 10.9 5.4 1.7 53 3.9 NW 20 26 11 14 1017.1 1017.1 0.0
18/11:00pm 11.1 5.9 2.2 54 3.8 NW 19 26 10 14 1016.9 1016.9 0.0
18/10:30pm 11.7 5.8 1.6 50 4.3 NW 22 28 12 15 1016.8 1016.8 0.0
18/10:00pm 11.9 6.7 2.4 52 4.1 NW 19 24 10 13 1017.3 1017.3 0.0
18/09:30pm 12.5 8.7 1.8 48 4.6 NW 11 19 6 10 1017.6 1017.6 0.0
18/09:00pm 12.5 8.8 2.1 49 4.5 WNW 11 24 6 13 1017.8 1017.8 0.0
18/08:30pm 13.1 9.4 2.4 48 4.7 WNW 11 19 6 10 1017.5 1017.5 0.0
18/08:00pm 13.3 8.6 1.0 43 5.2 WNW 15 22 8 12 1017.5 1017.5 0.0
18/07:30pm 13.5 10.0 1.2 43 5.3 WNW 9 11 5 6 1017.7 1017.7 0.0
18/07:00pm 13.8 10.1 0.1 39 5.7 WNW 9 15 5 8 1017.8 1017.8 0.0
18/06:30pm 14.3 11.3 0.9 40 5.8 WNW 6 19 3 10 1017.6 1017.6 0.0
18/06:00pm 14.5 11.4 0.4 38 6.0 W 6 13 3 7 1017.3 1017.3 0.0
18/05:30pm 15.1 11.9 -0.6 34 6.6 WNW 6 9 3 5 1016.8 1016.8 0.0
18/05:00pm 15.5 12.3 0.5 36 6.4 WNW 7 11 4 6 1016.4 1016.4 0.0
18/04:30pm 16.0 11.6 0.2 34 6.8 NW 13 22 7 12 1016.3 1016.3 0.0
18/04:00pm 16.7 12.4 1.2 35 6.8 WNW 13 20 7 11 1016.1 1016.1 0.0
18/03:30pm 16.9 12.3 -0.8 30 7.5 WNW 13 26 7 14 1015.9 1015.9 0.0
18/03:00pm 17.2 12.3 -0.5 30 7.6 WNW 15 26 8 14 1015.8 1015.8 0.0
18/02:30pm 17.2 12.9 1.2 34 7.1 WNW 13 26 7 14 1015.5 1015.5 0.0
18/02:00pm 17.2 11.8 -1.0 29 7.7 NW 17 26 9 14 1015.4 1015.4 0.0
18/01:30pm 16.7 13.0 -0.1 32 7.2 WNW 9 24 5 13 1015.6 1015.6 0.0
18/01:00pm 16.4 12.5 0.9 35 6.8 WNW 11 20 6 11 1015.7 1015.7 0.0
18/12:30pm 16.0 11.2 0.2 34 6.8 WNW 15 26 8 14 1016.3 1016.3 0.0
18/12:00pm 15.7 10.7 1.1 37 6.4 NW 17 26 9 14 1016.9 1016.9 0.0
18/11:30am 14.7 9.6 0.9 39 5.9 WNW 17 28 9 15 1016.9 1016.9 0.0
18/11:00am 14.3 9.3 1.6 42 5.5 WNW 17 30 9 16 1017.4 1017.4 0.0
18/10:30am 13.2 7.4 2.1 47 4.8 WNW 22 35 12 19 1017.5 1017.5 0.0
18/10:00am 12.9 7.5 2.2 48 4.7 WNW 20 37 11 20 1017.7 1017.7 0.0
18/09:30am 12.2 7.4 2.6 52 4.2 WNW 17 33 9 18 1017.6 1017.6 0.0
18/09:00am 11.5 6.1 2.5 54 3.9 NW 20 35 11 19 1017.5 1017.5 0.0
18/08:30am 11.3 5.9 2.3 54 3.9 WNW 20 35 11 19 1017.0 1017.0 0.0
18/08:00am 11.4 7.0 2.7 55 3.8 WNW 15 26 8 14 1016.7 1016.7 0.0
18/07:30am 11.5 7.5 2.8 55 3.8 NW 13 19 7 10 1016.8 1016.8 0.0
18/07:00am 12.2 9.3 1.2 47 4.7 WNW 6 13 3 7 1016.1 1016.1 0.0
18/06:30am 12.5 8.6 1.2 46 4.8 NNW 11 15 6 8 1015.8 1015.8 0.0
18/06:00am 13.2 10.2 1.8 46 4.9 NW 7 11 4 6 1015.1 1015.1 0.0
18/05:30am 14.0 11.3 0.3 39 5.8 NW 4 7 2 4 1014.8 1014.8 0.0
18/05:00am 14.1 11.7 2.4 45 5.2 S 4 6 2 3 1014.3 1014.3 0.0
18/04:30am 14.2 10.0 1.8 43 5.4 SW 13 19 7 10 1013.9 1013.9 0.0
18/04:00am 14.3 11.9 2.2 44 5.3 W 4 6 2 3 1013.6 1013.6 0.0
18/03:30am 14.9 11.7 2.8 44 5.4 WSW 9 19 5 10 1012.9 1012.9 0.0
18/03:00am 15.1 9.5 1.3 39 6.0 WSW 20 30 11 16 1012.3 1012.3 0.0
18/02:30am 15.7 11.7 0.7 36 6.5 WSW 11 24 6 13 1012.1 1012.1 0.0
18/02:00am 15.8 12.4 1.9 39 6.2 W 9 24 5 13 1012.2 1012.2 0.0
18/01:30am 15.9 11.9 2.7 41 6.0 WSW 13 24 7 13 1012.0 1012.0 0.0
18/01:00am 16.3 12.0 3.0 41 6.1 WSW 15 32 8 17 1011.5 1011.5 0.0
18/12:30am 16.7 12.4 3.4 41 6.2 W 15 33 8 18 1010.7 1010.7 0.0
18/12:00am 17.9 13.7 1.8 34 7.3 W 13 24 7 13 1010.2 1010.2 0.0
 
Date/Time
EST
Temp
°C
App
Temp
°C
Dew
Point
°C
Rel
Hum
%
Delta-T
°C
Wind Press
QNH
hPa
Press
MSL
hPa
Rain since
9am
mm
Dir  Spd
km/h
Gust
km/h
Spd
kts
Gust
kts
17/11:30pm 18.6 14.5 2.4 34 7.5 W 13 33 7 18 1009.3 1009.3 0.0
17/11:00pm 18.5 13.4 0.6 30 7.9 WNW 17 41 9 22 1008.9 1008.9 0.0
17/10:30pm 18.2 12.5 -1.1 27 8.2 NW 19 41 10 22 1009.2 1009.2 0.0

Other Formats:

Comma delimited format used in spreadsheet applications
http://www.bom.gov.au/fwo/IDN60801/IDN60801.95940.axf

JavaScript Object Notation format (JSON) in row-major order
http://www.bom.gov.au/fwo/IDN60801/IDN60801.95940.json